Terminal Aerodrome Forecast
Issued by NWS Sterling, VA

Current Version | Previous Version | Text Only | Print | Product List | Glossary Off
Versions: 1 2 3 4 5 6 7 8 9 10 11 12 13 14 15 16

000
FTUS41 KLWX 140103 AAB
TAFMRB
TAF AMD
KMRB 140103Z 1401/1424 VRB03KT P6SM -SN OVC050
     FM140600 20005KT P6SM OVC060
     FM141000 27007KT P6SM OVC050
     FM141200 30009KT P6SM FEW040 SCT080
     FM141500 32013G21KT P6SM FEW035 SCT040
     FM142000 31010KT P6SM FEW060 FEW250=

USA.gov is the U.S. government's official web portal to all federal, state and local government web resources and services.